Terminal Aerodrome Forecast
Issued by NWS Albany, NY

Home | Current Version | Previous Version | Text Only | Print | Product List | Glossary On
Versions: 1 2 3 4 5 6 7 8 9 10 11 12 13 14 15 16
000
FTUS41 KALY 112300
TAFPOU
TAF
KPOU 112333Z 1200/1224 00000KT P6SM SKC
     FM121200 VRB03KT P6SM SCT250
     FM121500 18006KT P6SM SCT100=

USA.gov is the U.S. government's official web portal to all federal, state and local government web resources and services.